Terminal Aerodrome Forecast
Issued by NWS

Home | Current Version | Previous Version | Text Only | Print | Product List | Glossary On
Versions: 1 2 3 4 5 6 7 8 9 10 11 12 13
502
FTPA31 PHFO 201140
TAFHTO
TAF
PHTO 201140Z 2012/2112 24005KT P6SM VCSH SCT025 BKN040
     FM202100 10008KT P6SM VCSH SCT025 BKN040
     FM210500 28005KT P6SM VCSH SCT025 BKN040=

USA.gov is the U.S. government's official web portal to all federal, state and local government web resources and services.